Time;durP1;ratioP1;P1;durP2;ratioP2;P2;SDS_P1;SDS_P2;PMS_P1;PMS_P2;Temp;Humidity;BMP_temperature;BMP_pressure;BME280_temperature;BME280_humidity;BME280_pressure;Samples;Min_cycle;Max_cycle;Signal;HPM_P1;HPM_P2
2024/02/27 00:01:39;;;;;;;0.30;0.20;;;;;;;8.89;97.57;99529.44;5052080;28;20525;-50
2024/02/27 00:04:05;;;;;;;0.30;0.20;;;;;;;8.80;97.34;99530.63;5053460;28;20451;-50
2024/02/27 00:06:32;;;;;;;0.30;0.20;;;;;;;8.71;97.85;99528.28;5053710;28;20485;-49
2024/02/27 00:08:58;;;;;;;0.30;0.20;;;;;;;8.71;98.50;99535.38;5053195;28;20948;-46
2024/02/27 00:11:25;;;;;;;0.30;0.20;;;;;;;8.63;97.92;99538.25;5053338;28;20454;-47
2024/02/27 00:13:51;;;;;;;0.30;0.20;;;;;;;8.65;98.30;99540.88;5053473;28;20451;-46
2024/02/27 00:16:18;;;;;;;0.30;0.20;;;;;;;8.59;98.74;99544.59;5053287;28;20831;-46
2024/02/27 00:18:45;;;;;;;0.30;0.20;;;;;;;8.69;97.23;99547.81;5052936;28;20562;-46
2024/02/27 00:21:11;;;;;;;0.30;0.20;;;;;;;8.80;97.09;99548.31;5052991;28;20546;-46
2024/02/27 00:23:38;;;;;;;0.30;0.20;;;;;;;8.77;98.10;99556.34;5052876;28;20511;-46
2024/02/27 00:26:04;;;;;;;0.30;0.20;;;;;;;8.77;97.97;99557.25;5053060;28;20502;-47
2024/02/27 00:28:31;;;;;;;0.30;0.20;;;;;;;8.40;97.59;99568.16;5053014;28;20516;-46
2024/02/27 00:30:58;;;;;;;0.30;0.20;;;;;;;8.38;98.83;99561.19;5053147;28;21007;-46
2024/02/27 00:33:24;;;;;;;0.30;0.20;;;;;;;8.32;98.90;99573.63;5053033;28;20451;-47
2024/02/27 00:35:51;;;;;;;0.30;0.10;;;;;;;8.55;98.41;99575.59;5052924;28;20451;-47
2024/02/27 00:38:17;;;;;;;0.30;0.20;;;;;;;8.53;98.52;99577.44;5052636;28;20498;-46
2024/02/27 00:40:44;;;;;;;0.30;0.20;;;;;;;8.43;98.53;99581.28;5052880;28;20445;-46
2024/02/27 00:43:11;;;;;;;0.30;0.20;;;;;;;8.27;99.23;99580.00;5052970;28;20455;-48
2024/02/27 00:45:38;;;;;;;0.30;0.20;;;;;;;8.46;99.18;99577.66;5052843;28;20453;-45
2024/02/27 00:48:05;;;;;;;2.57;2.43;;;;;;;8.44;98.99;99590.97;5052858;28;20513;-47
2024/02/27 00:50:32;;;;;;;0.30;0.20;;;;;;;8.63;98.61;99582.44;5052486;28;20449;-46
2024/02/27 00:52:58;;;;;;;0.30;0.20;;;;;;;8.49;98.85;99583.72;5052835;28;20455;-45
2024/02/27 00:55:24;;;;;;;0.30;0.20;;;;;;;8.71;98.19;99585.72;5052461;28;20464;-47
2024/02/27 00:57:51;;;;;;;0.30;0.20;;;;;;;8.76;97.69;99587.28;5052198;28;20561;-46
2024/02/27 01:00:18;;;;;;;0.30;0.20;;;;;;;8.81;97.85;99580.06;5052134;28;21094;-46
2024/02/27 01:02:45;;;;;;;0.30;0.20;;;;;;;8.89;97.71;99593.91;5052481;28;20482;-46
2024/02/27 01:05:11;;;;;;;0.30;0.20;;;;;;;9.02;96.97;99598.81;5051698;28;20561;-46
2024/02/27 01:07:39;;;;;;;0.30;0.20;;;;;;;8.90;97.44;99606.25;5052022;28;20541;-46
2024/02/27 01:10:06;;;;;;;0.30;0.20;;;;;;;8.71;98.26;99601.59;5052376;28;20537;-46
2024/02/27 01:12:33;;;;;;;0.30;0.20;;;;;;;8.66;98.98;99601.75;5052294;28;20443;-46
2024/02/27 01:15:00;;;;;;;0.30;0.20;;;;;;;8.53;99.29;99601.28;5052234;28;20557;-48
2024/02/27 01:17:26;;;;;;;0.30;0.20;;;;;;;8.45;99.93;99605.06;5051991;28;20478;-48
2024/02/27 01:19:53;;;;;;;0.30;0.20;;;;;;;8.46;100.00;99605.03;5051837;28;20493;-47
2024/02/27 01:22:27;;;;;;;0.30;0.20;;;;;;;8.37;100.00;99609.75;5052017;28;20852;-48
2024/02/27 01:24:58;;;;;;;0.30;0.20;;;;;;;8.31;100.00;99613.41;5052143;28;20562;-46
2024/02/27 01:27:26;;;;;;;0.30;0.20;;;;;;;8.33;100.00;99604.50;5050305;28;21041;-47
2024/02/27 01:29:53;;;;;;;0.30;0.20;;;;;;;8.14;100.00;99608.63;5051875;28;20927;-46
2024/02/27 01:32:20;;;;;;;0.30;0.20;;;;;;;7.96;100.00;99609.16;5050421;28;20546;-46
2024/02/27 01:34:46;;;;;;;0.30;0.20;;;;;;;8.13;100.00;99603.38;5051923;28;20463;-47
2024/02/27 01:37:13;;;;;;;0.30;0.20;;;;;;;7.91;100.00;99605.78;5051749;28;20467;-45
2024/02/27 01:39:40;;;;;;;0.30;0.20;;;;;;;8.16;99.71;99609.44;5051747;28;20544;-46
2024/02/27 01:42:07;;;;;;;0.30;0.20;;;;;;;8.29;99.18;99605.50;5046349;28;20474;-46
2024/02/27 01:44:33;;;;;;;0.30;0.20;;;;;;;8.26;99.81;99608.25;5051592;28;20470;-46
2024/02/27 01:47:00;;;;;;;0.30;0.20;;;;;;;8.10;99.27;99609.63;5051442;28;20550;-46
2024/02/27 01:49:28;;;;;;;0.30;0.20;;;;;;;8.34;99.08;99597.44;5051785;28;20443;-47
2024/02/27 01:51:55;;;;;;;0.30;0.20;;;;;;;8.31;98.93;99606.31;5051880;28;20470;-47
2024/02/27 01:54:24;;;;;;;0.30;0.20;;;;;;;8.28;98.62;99609.06;5051490;28;20943;-48
2024/02/27 01:56:56;;;;;;;0.30;0.20;;;;;;;8.25;98.64;99603.00;5050038;28;20479;-47
2024/02/27 01:59:23;;;;;;;0.30;0.20;;;;;;;8.12;99.08;99607.81;5051591;28;20515;-46
2024/02/27 02:01:53;;;;;;;0.30;0.20;;;;;;;8.38;98.16;99615.00;5051655;28;20478;-49
2024/02/27 02:04:20;;;;;;;0.30;0.20;;;;;;;8.38;98.91;99628.25;5051602;28;20486;-49
2024/02/27 02:06:47;;;;;;;0.30;0.20;;;;;;;8.42;98.33;99621.94;5051313;28;20470;-47
2024/02/27 02:09:13;;;;;;;0.30;0.20;;;;;;;8.30;98.32;99622.25;5051649;28;20450;-48
2024/02/27 02:11:42;;;;;;;0.30;0.10;;;;;;;8.37;98.20;99625.66;5051038;28;20802;-47
2024/02/27 02:14:08;;;;;;;0.30;0.20;;;;;;;8.39;98.23;99629.09;5049959;28;20447;-46
2024/02/27 02:16:35;;;;;;;0.30;0.20;;;;;;;8.33;98.83;99630.97;5053012;28;20454;-48
2024/02/27 02:19:01;;;;;;;0.30;0.20;;;;;;;8.47;98.11;99640.31;5055458;28;20494;-47
2024/02/27 02:21:28;;;;;;;0.30;0.20;;;;;;;8.41;98.70;99635.22;5055311;28;20538;-48
2024/02/27 02:23:59;;;;;;;0.30;0.20;;;;;;;8.47;98.84;99640.31;5055369;28;20467;-48
2024/02/27 02:26:29;;;;;;;0.30;0.20;;;;;;;8.52;98.54;99646.34;5054937;28;20956;-49
2024/02/27 02:28:56;;;;;;;0.30;0.20;;;;;;;8.58;98.64;99638.22;5055124;28;20822;-47
2024/02/27 02:31:23;;;;;;;0.30;0.20;;;;;;;8.59;99.03;99639.94;5055219;28;20447;-47
2024/02/27 02:33:49;;;;;;;0.30;0.20;;;;;;;8.60;98.82;99641.69;5055312;28;20453;-47
2024/02/27 02:36:16;;;;;;;0.77;0.77;;;;;;;8.58;98.61;99643.50;5054975;28;20874;-47
2024/02/27 02:38:42;;;;;;;0.30;0.20;;;;;;;8.57;98.83;99642.63;5055011;28;20804;-47
2024/02/27 02:41:09;;;;;;;0.30;0.20;;;;;;;8.31;100.00;99653.13;5054891;28;20512;-46
2024/02/27 02:43:35;;;;;;;0.30;0.20;;;;;;;8.45;99.65;99656.25;5055163;28;20461;-47
2024/02/27 02:46:01;;;;;;;0.30;0.20;;;;;;;8.54;98.75;99656.00;5055241;28;20451;-47
2024/02/27 02:48:28;;;;;;;0.30;0.20;;;;;;;8.46;99.36;99655.34;5054997;28;20553;-48
2024/02/27 02:50:55;;;;;;;0.30;0.20;;;;;;;8.43;99.44;99659.88;5054866;28;20445;-47
2024/02/27 02:53:21;;;;;;;0.30;0.20;;;;;;;8.38;99.90;99665.31;5054736;28;20504;-47
2024/02/27 02:55:47;;;;;;;1.17;1.17;;;;;;;8.40;100.00;99667.91;5054476;28;20454;-47
2024/02/27 02:58:14;;;;;;;0.30;0.20;;;;;;;8.44;100.00;99659.81;5055134;28;20478;-50
2024/02/27 03:00:40;;;;;;;0.33;0.27;;;;;;;8.50;100.00;99664.09;5054548;28;20492;-50
2024/02/27 03:03:07;;;;;;;0.30;0.20;;;;;;;8.56;100.00;99667.41;5054679;28;20819;-50
2024/02/27 03:05:34;;;;;;;0.40;0.40;;;;;;;8.70;99.48;99677.56;5054659;28;20451;-50
2024/02/27 03:08:00;;;;;;;0.30;0.20;;;;;;;8.68;99.13;99678.53;5054340;28;20481;-50
2024/02/27 03:10:26;;;;;;;0.30;0.20;;;;;;;8.74;98.65;99686.28;5054369;28;20469;-50
2024/02/27 03:12:53;;;;;;;0.30;0.20;;;;;;;8.68;99.29;99676.75;5054424;28;20454;-50
2024/02/27 03:15:19;;;;;;;0.30;0.20;;;;;;;8.60;99.11;99678.75;5054576;28;20446;-50
2024/02/27 03:17:46;;;;;;;0.30;0.20;;;;;;;8.69;98.65;99672.31;5054305;28;20474;-49
2024/02/27 03:20:12;;;;;;;0.30;0.20;;;;;;;8.61;98.71;99680.50;5054230;28;20487;-50
2024/02/27 03:22:39;;;;;;;0.30;0.20;;;;;;;8.66;98.88;99683.88;5054102;28;20455;-50
2024/02/27 03:25:06;;;;;;;0.30;0.20;;;;;;;8.67;98.65;99682.09;5052862;28;20446;-49
2024/02/27 03:27:33;;;;;;;0.30;0.20;;;;;;;8.69;98.62;99680.28;5053460;28;20837;-50
2024/02/27 03:30:00;;;;;;;1.80;1.80;;;;;;;8.67;98.27;99682.09;5054007;28;20916;-49
2024/02/27 03:32:26;;;;;;;0.30;0.20;;;;;;;8.56;98.76;99678.00;5054062;28;20451;-49
2024/02/27 03:34:53;;;;;;;0.30;0.20;;;;;;;8.65;98.18;99682.16;5053988;28;20453;-49
2024/02/27 03:37:19;;;;;;;0.30;0.20;;;;;;;8.56;98.58;99688.59;5053446;28;20569;-49
2024/02/27 03:39:46;;;;;;;0.30;0.20;;;;;;;8.59;98.20;99683.19;5054100;28;20491;-50
2024/02/27 03:42:12;;;;;;;0.30;0.20;;;;;;;8.52;98.20;99684.31;5053613;28;20894;-49
2024/02/27 03:44:43;;;;;;;0.30;0.20;;;;;;;8.50;98.55;99688.78;5053920;28;20451;-50
2024/02/27 03:47:09;;;;;;;0.30;0.20;;;;;;;8.50;99.10;99691.44;5053666;28;20971;-49
2024/02/27 03:49:35;;;;;;;0.30;0.30;;;;;;;8.32;99.38;99686.63;5053913;28;20538;-49
2024/02/27 03:52:02;;;;;;;0.30;0.20;;;;;;;8.36;98.71;99695.38;5053619;28;20451;-49
2024/02/27 03:54:29;;;;;;;0.30;0.20;;;;;;;8.32;99.43;99695.44;5053491;28;20959;-49
2024/02/27 03:56:55;;;;;;;0.30;0.20;;;;;;;8.23;98.15;99701.03;5053306;28;20482;-49
2024/02/27 03:59:22;;;;;;;0.30;0.20;;;;;;;8.03;98.67;99703.34;5053461;28;21368;-50
2024/02/27 04:01:51;;;;;;;0.30;0.20;;;;;;;8.06;98.69;99710.31;5053367;28;20446;-49
2024/02/27 04:04:17;;;;;;;0.30;0.20;;;;;;;8.08;99.86;99713.78;5053351;28;20928;-49
2024/02/27 04:06:44;;;;;;;0.30;0.20;;;;;;;7.88;98.68;99709.06;5053237;28;20896;-49
2024/02/27 04:09:10;;;;;;;0.30;0.20;;;;;;;7.62;100.00;99721.19;5053046;28;20458;-49
2024/02/27 04:11:37;;;;;;;0.30;0.20;;;;;;;7.85;99.67;99725.88;5050963;28;20462;-50
2024/02/27 04:14:05;;;;;;;0.30;0.20;;;;;;;7.81;100.00;99734.81;5053582;28;20924;-49
2024/02/27 04:16:32;;;;;;;1.17;1.17;;;;;;;7.74;99.50;99735.88;5052931;28;20529;-49
2024/02/27 04:18:58;;;;;;;0.30;0.20;;;;;;;7.46;99.64;99738.34;5052450;28;20478;-49
2024/02/27 04:21:25;;;;;;;0.30;0.20;;;;;;;7.31;99.33;99747.53;5053323;28;20487;-49
2024/02/27 04:23:51;;;;;;;0.30;0.20;;;;;;;7.07;99.58;99751.63;5052163;28;20508;-49
2024/02/27 04:26:18;;;;;;;0.30;0.17;;;;;;;6.97;100.00;99751.84;5053437;28;20450;-49
2024/02/27 04:28:44;;;;;;;0.30;0.20;;;;;;;6.87;100.00;99750.34;5053040;28;20473;-49
2024/02/27 04:31:10;;;;;;;0.30;0.20;;;;;;;6.78;98.95;99757.56;5053153;28;20482;-49
2024/02/27 04:33:39;;;;;;;0.30;0.20;;;;;;;6.61;100.00;99753.56;5053124;28;20451;-49
2024/02/27 04:36:07;;;;;;;0.30;0.20;;;;;;;6.42;100.00;99766.25;5053226;28;20463;-49
2024/02/27 04:38:34;;;;;;;0.30;0.20;;;;;;;6.44;100.00;99769.72;5053182;28;20462;-49
2024/02/27 04:41:01;;;;;;;0.30;0.20;;;;;;;6.30;100.00;99764.72;5052133;28;21018;-48
2024/02/27 04:43:27;;;;;;;0.30;0.20;;;;;;;6.38;100.00;99770.72;5053624;28;20455;-49
2024/02/27 04:45:53;;;;;;;0.30;0.20;;;;;;;6.13;100.00;99778.22;5052968;28;20455;-49
2024/02/27 04:48:20;;;;;;;0.30;0.20;;;;;;;6.09;100.00;99779.19;5053433;28;20840;-49
2024/02/27 04:50:47;;;;;;;0.30;0.20;;;;;;;6.06;100.00;99778.41;5053422;28;20439;-49
2024/02/27 04:53:13;;;;;;;0.30;0.20;;;;;;;6.07;100.00;99782.78;5053786;28;20533;-49
2024/02/27 04:55:40;;;;;;;0.30;0.20;;;;;;;6.03;100.00;99781.06;5052997;28;20553;-49
2024/02/27 04:58:06;;;;;;;0.30;0.20;;;;;;;6.04;100.00;99782.84;5052777;28;20493;-48
2024/02/27 05:00:33;;;;;;;0.30;0.20;;;;;;;6.10;100.00;99794.13;5052348;28;20510;-52
2024/02/27 05:02:59;;;;;;;0.30;0.20;;;;;;;6.03;100.00;99795.16;5052684;28;21017;-47
2024/02/27 05:05:26;;;;;;;0.30;0.20;;;;;;;6.11;100.00;99795.88;5053116;28;20450;-48
2024/02/27 05:07:52;;;;;;;0.30;0.20;;;;;;;5.79;100.00;99801.69;5052849;28;20467;-47
2024/02/27 05:10:18;;;;;;;0.30;0.20;;;;;;;5.68;99.81;99810.66;5052407;28;21019;-48
2024/02/27 05:12:45;;;;;;;0.30;0.20;;;;;;;5.62;100.00;99811.66;5052818;28;20454;-49
2024/02/27 05:15:11;;;;;;;0.30;0.20;;;;;;;5.58;100.00;99818.72;5052255;28;20541;-48
2024/02/27 05:17:38;;;;;;;0.30;0.20;;;;;;;5.36;100.00;99822.59;5052354;28;20855;-48
2024/02/27 05:20:05;;;;;;;0.30;0.10;;;;;;;5.37;100.00;99820.84;5052443;28;20995;-47
2024/02/27 05:22:31;;;;;;;0.30;0.20;;;;;;;5.35;100.00;99819.09;5052316;28;20988;-48
2024/02/27 05:24:58;;;;;;;0.30;0.20;;;;;;;5.27;100.00;99825.38;5052539;28;20542;-48
2024/02/27 05:27:24;;;;;;;0.30;0.20;;;;;;;5.29;100.00;99824.44;5052279;28;20466;-49
2024/02/27 05:29:51;;;;;;;0.30;0.20;;;;;;;5.30;100.00;99831.44;5052104;28;20451;-48
2024/02/27 05:32:17;;;;;;;0.30;0.20;;;;;;;5.46;100.00;99834.72;5052395;28;20447;-50
2024/02/27 05:34:43;;;;;;;0.30;0.20;;;;;;;5.46;100.00;99840.00;5052437;28;20446;-48
2024/02/27 05:37:10;;;;;;;0.30;0.20;;;;;;;5.49;100.00;99842.63;5051905;28;20474;-48
2024/02/27 05:39:36;;;;;;;0.30;0.20;;;;;;;5.44;100.00;99843.56;5051960;28;20478;-49
2024/02/27 05:42:03;;;;;;;0.30;0.20;;;;;;;5.53;100.00;99848.69;5051847;28;20451;-47
2024/02/27 05:44:30;;;;;;;0.30;0.20;;;;;;;5.53;100.00;99853.97;5051780;28;20475;-48
2024/02/27 05:46:56;;;;;;;0.30;0.20;;;;;;;5.52;100.00;99858.38;5051719;28;20528;-48
2024/02/27 05:49:23;;;;;;;0.30;0.20;;;;;;;5.61;100.00;99863.47;5051781;28;20967;-48
2024/02/27 05:51:49;;;;;;;0.30;0.10;;;;;;;5.76;100.00;99854.50;5051618;28;20446;-47
2024/02/27 05:54:15;;;;;;;0.53;0.53;;;;;;;5.85;100.00;99859.59;5051616;28;20512;-48
2024/02/27 05:56:45;;;;;;;0.30;0.20;;;;;;;6.07;100.00;99857.50;5051562;28;20474;-48
2024/02/27 05:59:11;;;;;;;0.30;0.13;;;;;;;6.02;100.00;99850.56;5051864;28;20457;-48
2024/02/27 06:01:38;;;;;;;0.30;0.20;;;;;;;6.04;100.00;99854.94;5051494;28;20501;-54
2024/02/27 06:04:05;;;;;;;0.30;0.20;;;;;;;6.06;100.00;99861.06;5052111;28;20509;-48
2024/02/27 06:06:31;;;;;;;0.30;0.20;;;;;;;6.09;100.00;99854.84;5051825;28;20447;-47
2024/02/27 06:08:58;;;;;;;0.30;0.20;;;;;;;6.12;100.00;99863.56;5052170;28;20474;-46
2024/02/27 06:11:25;;;;;;;0.30;0.20;;;;;;;6.17;100.00;99864.38;5051752;28;21048;-49
2024/02/27 06:13:51;;;;;;;0.30;0.20;;;;;;;6.33;100.00;99864.97;5051735;28;20458;-48
2024/02/27 06:16:18;;;;;;;0.30;0.20;;;;;;;6.46;100.00;99868.25;5051553;28;20505;-48
2024/02/27 06:18:47;;;;;;;0.30;0.20;;;;;;;6.59;100.00;99866.25;5051369;28;20474;-56
2024/02/27 06:24:00;;;;;;;0.30;0.20;;;;;;;6.59;100.00;99874.19;5051478;28;20446;-47
2024/02/27 06:26:27;;;;;;;0.30;0.20;;;;;;;6.46;100.00;99878.81;5051798;28;20457;-48
2024/02/27 06:28:53;;;;;;;0.30;0.20;;;;;;;6.37;100.00;99890.41;5051486;28;21022;-48
2024/02/27 06:31:20;;;;;;;0.30;0.20;;;;;;;6.44;100.00;99896.44;5051499;28;20447;-48
2024/02/27 06:33:46;;;;;;;0.30;0.20;;;;;;;6.33;100.00;99904.56;5051496;28;20530;-48
2024/02/27 06:36:13;;;;;;;0.30;0.20;;;;;;;6.56;100.00;99900.63;5051319;28;20453;-47
2024/02/27 06:38:39;;;;;;;0.30;0.20;;;;;;;6.96;100.00;99906.00;5051072;28;20903;-47
2024/02/27 06:41:07;;;;;;;0.30;0.20;;;;;;;6.67;100.00;99912.72;5051071;28;20494;-48
2024/02/27 06:43:33;;;;;;;0.30;0.10;;;;;;;6.46;100.00;99911.38;5052007;28;20454;-48
2024/02/27 06:46:00;;;;;;;0.30;0.20;;;;;;;6.58;100.00;99918.19;5051720;28;21137;-47
2024/02/27 06:48:28;;;;;;;0.30;0.20;;;;;;;6.39;100.00;99922.03;5051851;28;20553;-48
2024/02/27 06:50:55;;;;;;;0.30;0.20;;;;;;;6.52;100.00;99927.09;5038674;28;20455;-49
2024/02/27 06:53:23;;;;;;;0.30;0.20;;;;;;;6.39;100.00;99930.84;5051832;28;20446;-47
2024/02/27 06:55:50;;;;;;;0.30;0.20;;;;;;;6.41;100.00;99930.81;5039143;28;20447;-49
2024/02/27 06:58:16;;;;;;;0.30;0.10;;;;;;;6.50;100.00;99939.44;5050943;28;20911;-48
2024/02/27 07:00:43;;;;;;;0.30;0.20;;;;;;;6.50;100.00;99946.50;5050911;28;20565;-50
2024/02/27 07:03:10;;;;;;;0.30;0.20;;;;;;;6.47;100.00;99950.06;5051922;28;20446;-48
2024/02/27 07:05:36;;;;;;;0.30;0.20;;;;;;;6.58;100.00;99954.25;5054541;28;20511;-49
2024/02/27 07:08:17;;;;;;;0.30;0.20;;;;;;;6.63;100.00;99958.59;5054528;28;20470;-48
2024/02/27 07:10:44;;;;;;;0.30;0.20;;;;;;;6.68;100.00;99956.72;5054742;28;20533;-48
2024/02/27 07:13:10;;;;;;;0.30;0.10;;;;;;;6.62;100.00;99955.97;5055196;28;20454;-48
2024/02/27 07:15:37;;;;;;;0.40;0.37;;;;;;;6.62;100.00;99970.03;5055757;28;20474;-48
2024/02/27 07:18:05;;;;;;;0.30;0.20;;;;;;;6.53;100.00;99968.44;5055129;28;20478;-48
2024/02/27 07:20:31;;;;;;;0.30;0.20;;;;;;;6.41;100.00;99979.19;5055574;28;20497;-48
2024/02/27 07:22:59;;;;;;;0.30;0.20;;;;;;;6.48;100.00;99987.91;5055520;28;20541;-50
2024/02/27 07:25:25;;;;;;;0.30;0.10;;;;;;;6.57;100.00;99981.56;5055639;28;20801;-49
2024/02/27 07:27:52;;;;;;;9.90;9.30;;;;;;;6.36;100.00;99990.72;5055037;28;20467;-48
2024/02/27 07:30:19;;;;;;;0.30;0.20;;;;;;;6.45;100.00;99993.22;5054853;28;20520;-48
2024/02/27 07:32:45;;;;;;;0.30;0.20;;;;;;;6.49;100.00;99994.91;5054724;28;20461;-49
2024/02/27 07:35:12;;;;;;;0.30;0.20;;;;;;;6.65;100.00;100003.44;5054947;28;20446;-48
2024/02/27 07:37:39;;;;;;;0.30;0.20;;;;;;;6.55;100.00;99997.44;5054766;28;20513;-48
2024/02/27 07:40:06;;;;;;;0.30;0.20;;;;;;;6.54;100.00;99996.56;5054227;28;20481;-49
2024/02/27 07:42:33;;;;;;;0.30;0.20;;;;;;;6.65;100.00;99999.03;5054043;28;20453;-48
2024/02/27 07:45:00;;;;;;;0.30;0.20;;;;;;;6.67;100.00;100010.44;5054143;28;20602;-49
2024/02/27 07:47:27;;;;;;;0.30;0.20;;;;;;;6.71;100.00;100000.69;5053932;28;20471;-49
2024/02/27 07:49:53;;;;;;;0.30;0.10;;;;;;;6.86;100.00;99995.16;5054437;28;20474;-49
2024/02/27 07:52:21;;;;;;;0.30;0.10;;;;;;;6.92;100.00;99991.50;5054234;28;20451;-49
2024/02/27 07:54:47;;;;;;;0.30;0.20;;;;;;;7.05;100.00;99995.66;5053744;28;20455;-48
2024/02/27 07:57:14;;;;;;;0.30;0.20;;;;;;;7.23;100.00;99995.31;5054104;28;20554;-48
2024/02/27 07:59:41;;;;;;;0.30;0.20;;;;;;;7.41;100.00;99994.97;5054020;28;20818;-48
2024/02/27 08:02:07;;;;;;;0.30;0.10;;;;;;;7.52;100.00;99996.47;5053293;28;20493;-48
2024/02/27 08:04:34;;;;;;;0.30;0.20;;;;;;;7.67;100.00;99993.50;5053724;28;20538;-48
2024/02/27 08:07:01;;;;;;;0.30;0.20;;;;;;;7.85;100.00;99992.25;5053529;28;20474;-49
2024/02/27 08:09:28;;;;;;;0.30;0.20;;;;;;;8.03;99.83;99998.00;5053757;28;20446;-50
2024/02/27 08:11:54;;;;;;;0.30;0.20;;;;;;;8.13;99.81;99997.78;5053563;28;20474;-48
2024/02/27 08:14:21;;;;;;;0.30;0.20;;;;;;;8.24;99.74;99998.41;5053491;28;20454;-49
2024/02/27 08:16:47;;;;;;;0.30;0.20;;;;;;;8.30;99.84;100006.19;5053088;28;20584;-48
2024/02/27 08:19:14;;;;;;;0.30;0.20;;;;;;;8.38;98.73;100000.75;5053586;28;20500;-48
2024/02/27 08:21:40;;;;;;;0.30;0.20;;;;;;;8.48;99.00;99999.59;5053433;28;20490;-49
2024/02/27 08:24:11;;;;;;;0.30;0.20;;;;;;;8.63;99.39;99999.22;5053274;28;20450;-48
2024/02/27 08:26:39;;;;;;;4.50;4.20;;;;;;;8.93;98.81;99994.94;5053173;28;20451;-48
2024/02/27 08:29:06;;;;;;;0.30;0.20;;;;;;;8.97;97.83;100001.00;5052885;28;20455;-49
2024/02/27 08:31:32;;;;;;;0.30;0.20;;;;;;;9.26;94.85;99997.56;5053072;28;20454;-49
2024/02/27 08:34:03;;;;;;;0.30;0.20;;;;;;;9.33;93.91;99989.41;5052917;28;20454;-49
2024/02/27 08:36:32;;;;;;;0.30;0.20;;;;;;;9.40;93.62;99985.66;5053208;28;20454;-48
2024/02/27 08:38:59;;;;;;;0.30;0.20;;;;;;;9.71;94.68;99998.00;5052902;28;20494;-48
2024/02/27 08:41:26;;;;;;;0.30;0.20;;;;;;;9.68;92.96;99993.66;5052773;28;20490;-49
2024/02/27 08:43:52;;;;;;;0.30;0.20;;;;;;;9.85;93.11;100005.56;5052712;28;20976;-48
2024/02/27 08:46:19;;;;;;;0.30;0.20;;;;;;;10.00;92.53;100015.72;5052803;28;20801;-48
2024/02/27 08:48:46;;;;;;;0.30;0.20;;;;;;;10.04;91.41;100012.06;5052551;28;20950;-48
2024/02/27 08:51:13;;;;;;;0.30;0.20;;;;;;;10.08;90.97;100008.38;5052693;28;20500;-49
2024/02/27 08:53:39;;;;;;;0.30;0.20;;;;;;;10.08;90.96;100003.06;5052311;28;20966;-48
2024/02/27 08:56:06;;;;;;;0.30;0.20;;;;;;;10.02;90.18;100006.81;5052427;28;21012;-47
2024/02/27 08:58:34;;;;;;;0.30;0.20;;;;;;;10.03;89.89;99997.91;5052812;28;20914;-47
2024/02/27 09:01:01;;;;;;;0.30;0.20;;;;;;;10.12;89.22;100001.19;5052480;28;20486;-48
2024/02/27 09:03:28;;;;;;;0.30;0.20;;;;;;;10.21;89.74;100004.47;5053631;28;20447;-48
2024/02/27 09:05:55;;;;;;;1.97;1.87;;;;;;;10.43;89.52;99998.47;5052594;28;20451;-48
2024/02/27 09:08:22;;;;;;;0.30;0.20;;;;;;;10.43;89.25;99993.16;5052526;28;20845;-48
2024/02/27 09:10:48;;;;;;;0.30;0.20;;;;;;;10.36;88.08;99990.69;5052360;28;20483;-48
2024/02/27 09:13:15;;;;;;;0.30;0.20;;;;;;;10.63;88.84;99980.06;5052577;28;20504;-48
2024/02/27 09:15:41;;;;;;;0.30;0.20;;;;;;;10.64;87.32;99979.16;5052524;28;20530;-48
2024/02/27 09:18:07;;;;;;;0.30;0.20;;;;;;;10.51;87.74;99993.75;5052085;28;20467;-48
2024/02/27 09:20:36;;;;;;;0.30;0.20;;;;;;;10.43;86.78;99988.72;5052367;28;20500;-48
2024/02/27 09:23:02;;;;;;;0.30;0.20;;;;;;;10.37;86.95;99994.22;5052846;28;20545;-49
2024/02/27 09:25:29;;;;;;;0.30;0.20;;;;;;;10.41;86.25;99992.31;5051804;28;20449;-49
2024/02/27 09:27:55;;;;;;;0.30;0.20;;;;;;;10.69;85.73;100001.13;5051289;28;20878;-49
2024/02/27 09:30:22;;;;;;;0.30;0.20;;;;;;;10.63;85.56;99988.91;5051962;28;20450;-48
2024/02/27 09:32:51;;;;;;;0.30;0.20;;;;;;;10.82;86.28;99982.94;5051886;28;20474;-49
2024/02/27 09:35:19;;;;;;;0.30;0.20;;;;;;;10.83;86.62;99993.56;5051927;28;20446;-49
2024/02/27 09:37:45;;;;;;;0.30;0.20;;;;;;;10.95;85.75;99989.59;5051530;28;20470;-49
2024/02/27 09:40:12;;;;;;;0.30;0.20;;;;;;;10.97;84.19;99982.44;5051797;28;20943;-49
2024/02/27 09:42:39;;;;;;;0.30;0.30;;;;;;;11.00;85.18;99978.81;5051828;28;20491;-49
2024/02/27 09:45:07;;;;;;;0.30;0.20;;;;;;;10.96;84.29;99976.25;5052017;28;20454;-49
2024/02/27 09:47:47;;;;;;;0.30;0.20;;;;;;;10.90;84.29;99983.56;5051499;28;20803;-49
2024/02/27 09:50:18;;;;;;;0.30;0.20;;;;;;;10.96;84.36;99983.34;5051485;28;20443;-49
2024/02/27 09:52:50;;;;;;;0.30;0.20;;;;;;;11.02;83.37;99992.91;5051874;28;20445;-48
2024/02/27 09:55:20;;;;;;;0.30;0.20;;;;;;;11.36;83.11;100000.53;5051727;28;20451;-49
2024/02/27 09:57:47;;;;;;;0.30;0.20;;;;;;;11.66;82.67;99995.91;5052197;28;20995;-49
2024/02/27 10:00:16;;;;;;;0.30;0.20;;;;;;;11.65;80.06;99994.13;5052073;28;20438;-49
2024/02/27 10:02:47;;;;;;;0.30;0.20;;;;;;;11.71;81.08;99985.94;5051851;28;20490;-49
2024/02/27 10:05:17;;;;;;;0.30;0.20;;;;;;;11.95;80.16;99989.50;5052275;28;20481;-49
2024/02/27 10:07:50;;;;;;;0.30;0.20;;;;;;;12.07;80.02;99997.88;5052486;28;20466;-50
2024/02/27 10:10:17;;;;;;;0.30;0.20;;;;;;;12.34;79.97;99997.69;5052014;28;20479;-49
2024/02/27 10:12:44;;;;;;;0.30;0.20;;;;;;;12.24;78.04;99989.19;5052086;28;20501;-49
2024/02/27 10:15:11;;;;;;;0.30;0.20;;;;;;;12.16;78.11;99986.81;5051956;28;20454;-50
2024/02/27 10:17:39;;;;;;;0.30;0.20;;;;;;;12.16;77.70;99997.47;5051827;28;20446;-49
2024/02/27 10:20:10;;;;;;;0.30;0.20;;;;;;;12.28;77.66;100011.25;5039168;28;20802;-49
2024/02/27 10:22:41;;;;;;;0.40;0.20;;;;;;;12.02;76.74;100009.63;5052000;28;20518;-49
2024/02/27 10:25:14;;;;;;;0.30;0.20;;;;;;;12.37;77.40;100014.44;5051864;28;20464;-49
2024/02/27 10:27:41;;;;;;;0.30;0.20;;;;;;;12.49;77.35;100010.41;5050426;28;21073;-50
2024/02/27 10:30:10;;;;;;;0.30;0.20;;;;;;;12.35;76.10;100018.09;5051986;28;20918;-49
2024/02/27 10:32:39;;;;;;;0.30;0.20;;;;;;;12.53;75.98;100021.78;5051494;28;20958;-49
2024/02/27 10:35:06;;;;;;;0.30;0.20;;;;;;;12.69;76.61;100023.75;5052198;28;20786;-49
2024/02/27 10:37:33;;;;;;;0.30;0.20;;;;;;;12.64;75.03;100016.91;5051675;28;20853;-48
2024/02/27 10:40:02;;;;;;;0.30;0.20;;;;;;;12.58;74.95;100023.34;5055775;28;20542;-48
2024/02/27 10:42:29;;;;;;;0.30;0.20;;;;;;;12.62;75.61;100016.09;5055523;28;21054;-48
2024/02/27 10:44:57;;;;;;;0.40;0.20;;;;;;;12.61;74.83;100019.66;5055785;28;20895;-49
2024/02/27 10:47:27;;;;;;;5.47;2.53;;;;;;;12.74;74.89;100012.88;5049708;28;20946;-49
2024/02/27 10:49:53;;;;;;;0.80;0.80;;;;;;;12.72;74.68;100022.75;5050416;28;20457;-49
2024/02/27 10:52:26;;;;;;;0.30;0.20;;;;;;;12.85;73.88;100023.97;5055557;28;20450;-49
2024/02/27 10:54:53;;;;;;;0.30;0.20;;;;;;;12.84;73.91;100024.91;5055301;28;21013;-48
2024/02/27 10:57:20;;;;;;;0.30;0.20;;;;;;;12.93;73.39;100029.88;5055071;28;20891;-48
2024/02/27 10:59:47;;;;;;;0.30;0.20;;;;;;;13.10;71.03;100012.28;5055533;28;20450;-51
2024/02/27 11:02:18;;;;;;;0.40;0.20;;;;;;;12.95;71.73;100019.13;5041612;28;20986;-49
2024/02/27 11:04:49;;;;;;;0.30;0.20;;;;;;;13.01;74.45;100016.19;5055367;28;20457;-49
2024/02/27 11:07:16;;;;;;;0.30;0.20;;;;;;;13.13;73.40;100022.81;5055207;28;20495;-49
2024/02/27 11:09:44;;;;;;;0.30;0.20;;;;;;;12.99;70.22;100020.72;5055278;28;20533;-49
2024/02/27 11:12:16;;;;;;;0.30;0.20;;;;;;;13.04;70.61;100013.41;5055555;28;20454;-49
2024/02/27 11:14:50;;;;;;;0.30;0.20;;;;;;;13.11;70.75;100008.66;5055096;28;20446;-49
2024/02/27 11:17:21;;;;;;;0.30;0.20;;;;;;;13.24;72.23;100009.91;5054879;28;20550;-50
2024/02/27 11:19:52;;;;;;;0.30;0.20;;;;;;;13.19;73.45;100007.44;5054851;28;20446;-49
2024/02/27 11:22:23;;;;;;;0.30;0.20;;;;;;;13.21;73.17;99997.56;5055200;28;20521;-49
2024/02/27 11:24:50;;;;;;;0.30;0.20;;;;;;;13.54;70.10;99997.84;5054881;28;20460;-49
2024/02/27 11:27:22;;;;;;;0.30;0.20;;;;;;;13.42;70.89;100003.72;5054874;28;20524;-49
2024/02/27 11:29:51;;;;;;;0.30;0.20;;;;;;;13.34;70.42;100000.56;5054735;28;20447;-48
2024/02/27 11:32:19;;;;;;;1.03;1.03;;;;;;;13.31;69.49;99995.34;5054485;28;20488;-49
2024/02/27 11:34:47;;;;;;;0.30;0.20;;;;;;;13.41;70.04;99988.66;5054723;28;20500;-50
2024/02/27 11:37:18;;;;;;;0.30;0.20;;;;;;;13.58;70.84;99985.25;5054974;28;20467;-50
2024/02/27 11:39:45;;;;;;;0.30;0.20;;;;;;;13.56;70.40;99987.94;5054690;28;20610;-49